EW8158 Weather Reports


Display with metric or nautical units.
time (UTC)temp
F
wind
direction
speed
MPH
gust
MPH
rain 1hr
in
rain 24hr
in
rain mn
in
humidity
%
barometer
mb
20180925123509 41 315 0.0 0.0 0.00 0.12 0.07 93 1026.3
20180925123009 41 315 0.0 0.0 0.00 0.12 0.07 93 1026.1
20180925122509 41 315 0.0 1.0 0.00 0.12 0.07 93 1026.3
20180925122010 41 45 0.0 1.0 0.00 0.12 0.07 93 1025.9
20180925121509 40 292 0.0 0.0 0.00 0.12 0.07 91 1025.9
20180925121011 40 292 0.0 0.0 0.00 0.12 0.07 91 1025.9
20180925120508 41 292 0.0 0.0 0.00 0.12 0.07 92 1026.0
20180925120011 41 292 0.0 0.0 0.00 0.12 0.07 92 1026.0
20180925115509 41 292 0.0 0.0 0.00 0.12 0.07 92 1025.9
20180925115009 41 38 0.0 0.0 0.00 0.12 0.07 92 1025.9
20180925114508 41 135 0.0 0.0 0.00 0.12 0.07 92 1025.9
20180925114009 41 135 0.0 0.0 0.00 0.12 0.07 91 1025.9
20180925113509 41 135 0.0 1.0 0.00 0.12 0.07 91 1025.9
20180925113010 41 337 0.0 0.0 0.00 0.12 0.07 86 1025.9
20180925112509 41 337 0.0 0.0 0.00 0.12 0.07 86 1025.9
20180925112010 41 337 0.0 0.0 0.00 0.12 0.07 86 1025.9
20180925111508 42 337 0.0 0.0 0.00 0.12 0.07 87 1025.9
20180925111009 42 337 0.0 0.0 0.00 0.12 0.07 87 1025.9
20180925110512 42 337 0.0 0.0 0.00 0.12 0.07 87 1025.9
20180925110011 41 337 1.0 2.0 0.00 0.12 0.07 87 1025.9
20180925105508 42 3 2.0 3.0 0.00 0.12 0.07 89 1025.9
20180925105010 42 328 4.0 5.0 0.00 0.12 0.07 90 1025.9
20180925104509 42 319 3.0 5.0 0.00 0.12 0.07 91 1025.6
20180925104010 42 296 4.0 5.0 0.00 0.12 0.07 92 1025.5
20180925103508 42 299 3.0 5.0 0.00 0.12 0.07 92 1025.5
20180925103009 41 295 3.0 5.0 0.00 0.12 0.07 93 1025.5
20180925102509 41 279 3.0 6.0 0.00 0.12 0.07 93 1025.5
20180925102010 41 271 3.0 5.0 0.00 0.12 0.07 93 1025.5
20180925101508 41 293 3.0 4.0 0.00 0.12 0.07 92 1025.5
20180925101009 41 287 3.0 5.0 0.00 0.12 0.07 92 1025.5
20180925100509 41 293 3.0 5.0 0.00 0.12 0.07 92 1025.5
20180925100011 41 291 3.0 4.0 0.00 0.12 0.07 93 1025.5
20180925095508 41 258 2.0 4.0 0.01 0.12 0.07 93 1025.5
20180925095009 41 261 2.0 5.0 0.01 0.12 0.07 93 1025.5
20180925094508 41 236 1.0 3.0 0.02 0.12 0.07 93 1025.7
20180925094009 41 258 1.0 3.0 0.04 0.12 0.07 93 1025.8
20180925093508 41 230 1.0 3.0 0.04 0.12 0.07 93 1025.9
20180925093009 41 276 1.0 3.0 0.04 0.12 0.07 92 1025.8
20180925092508 41 292 1.0 2.0 0.04 0.12 0.07 92 1025.7
20180925092009 41 292 1.0 1.0 0.04 0.12 0.07 92 1025.9
20180925091508 41 90 0.0 0.0 0.06 0.12 0.07 91 1025.9
20180925091010 41 90 0.0 0.0 0.06 0.12 0.07 91 1025.9
20180925090508 42 90 0.0 0.0 0.06 0.12 0.07 91 1025.9
20180925090010 42 90 0.0 0.0 0.06 0.12 0.07 91 1025.8
20180925085507 42 90 0.0 0.0 0.06 0.11 0.06 90 1025.9
20180925085010 42 90 0.0 0.0 0.06 0.11 0.06 90 1025.8
20180925084509 42 90 0.0 0.0 0.05 0.10 0.05 90 1025.8
20180925084008 42 67 0.0 1.0 0.03 0.08 0.03 88 1025.9
20180925083508 43 67 0.0 1.0 0.03 0.08 0.03 89 1025.9
20180925083010 43 67 0.0 0.0 0.03 0.08 0.03 89 1025.9
20180925082508 43 45 0.0 0.0 0.03 0.08 0.03 88 1025.8
20180925082010 42 45 3.0 4.0 0.01 0.06 0.01 86 1025.9
20180925081509 42 45 3.0 4.0 0.01 0.06 0.01 86 1025.9
20180925081009 42 45 5.0 7.0 0.01 0.06 0.01 86 1025.7
20180925080508 43 45 3.0 5.0 0.01 0.06 0.01 86 1025.5
20180925080012 43 59 4.0 6.0 0.01 0.06 0.01 85 1025.5
20180925075508 43 37 2.0 3.0 0.00 0.05 0.00 83 1025.4
20180925075009 44 79 2.0 3.0 0.00 0.05 0.00 81 1025.3
20180925074508 44 100 3.0 4.0 0.00 0.05 0.00 80 1025.1
20180925074009 43 338 4.0 6.0 0.00 0.05 0.00 81 1025.0
20180925073508 43 333 4.0 6.0 0.00 0.05 0.00 83 1024.7
20180925073009 42 318 3.0 5.0 0.00 0.05 0.00 83 1024.7
20180925072509 43 307 3.0 4.0 0.00 0.05 0.00 82 1024.7
20180925072009 43 303 2.0 3.0 0.00 0.05 0.00 82 1024.7
20180925071508 43 327 4.0 6.0 0.00 0.05 0.00 83 1024.7
20180925071009 42 316 4.0 6.0 0.00 0.05 0.00 84 1024.7
20180925070509 42 325 3.0 5.0 0.00 0.05 0.00 85 1024.8
20180925070010 42 325 3.0 4.0 0.00 0.05 0.00 85 1024.7
20180925065508 42 318 2.0 4.0 0.00 0.05 0.00 85 1024.8
20180925065009 42 301 2.0 4.0 0.00 0.05 0.00 85 1024.8
20180925064508 42 292 1.0 2.0 0.00 0.05 0.00 84 1024.8
20180925064009 42 314 0.0 1.0 0.00 0.05 0.00 84 1025.0
20180925063509 42 295 2.0 3.0 0.00 0.05 0.00 83 1024.9
20180925063010 42 316 0.0 1.0 0.00 0.05 0.00 83 1024.8
20180925062510 42 360 1.0 2.0 0.00 0.05 0.00 82 1024.7
20180925062009 42 270 0.0 1.0 0.00 0.05 0.00 79 1024.7
20180925061509 43 315 0.0 1.0 0.00 0.05 0.00 78 1024.7
20180925061009 44 315 0.0 1.0 0.00 0.05 0.00 77 1024.7
20180925060509 45 337 2.0 3.0 0.00 0.05 0.00 77 1024.7
20180925055508 45 334 3.0 4.0 0.00 0.05 0.05 78 1024.7
20180925055009 45 347 1.0 2.0 0.00 0.05 0.05 79 1024.7
20180925054509 45 22 4.0 6.0 0.00 0.05 0.05 77 1024.7
20180925054009 45 43 3.0 4.0 0.00 0.05 0.05 75 1024.4
20180925053508 45 40 3.0 5.0 0.00 0.05 0.05 76 1024.4
20180925053009 45 353 2.0 3.0 0.00 0.05 0.05 76 1024.5
20180925052509 45 303 1.0 2.0 0.00 0.05 0.05 76 1024.4
20180925052010 44 90 1.0 3.0 0.00 0.05 0.05 77 1024.2
20180925051508 44 22 1.0 3.0 0.00 0.05 0.05 79 1024.1
20180925051010 44 321 4.0 5.0 0.00 0.05 0.05 79 1024.0
20180925050509 44 308 4.0 7.0 0.00 0.05 0.05 79 1023.9
20180925050010 44 319 4.0 5.0 0.00 0.05 0.05 78 1024.0
20180925045508 44 313 4.0 5.0 0.00 0.05 0.05 76 1024.0
20180925045010 45 299 3.0 5.0 0.00 0.05 0.05 75 1023.9
20180925044509 46 215 0.0 0.0 0.00 0.05 0.05 74 1023.7
20180925044010 46 112 0.0 0.0 0.00 0.05 0.05 73 1024.0
20180925043509 46 45 1.0 2.0 0.00 0.05 0.05 73 1023.8
20180925043010 47 45 1.0 3.0 0.00 0.05 0.05 73 1023.8
20180925042508 47 43 3.0 6.0 0.00 0.05 0.05 73 1023.7
20180925042010 47 39 3.0 7.0 0.00 0.05 0.05 73 1023.7
20180925041509 47 53 4.0 8.0 0.00 0.05 0.05 74 1023.6
20180925041009 46 56 5.0 9.0 0.00 0.05 0.05 74 1023.3
20180925040509 46 78 5.0 9.0 0.00 0.05 0.05 75 1023.2
20180925040008 46 33 5.0 9.0 0.00 0.05 0.05 76 1023.1
20180925035508 46 70 5.0 8.0 0.00 0.05 0.05 77 1022.9
20180925035009 46 68 4.0 8.0 0.00 0.05 0.05 78 1023.2
20180925034509 45 40 6.0 10.0 0.00 0.05 0.05 80 1023.1
20180925034009 45 43 6.0 9.0 0.00 0.05 0.05 81 1022.9
20180925033509 45 37 8.0 12.0 0.00 0.05 0.05 82 1022.9
20180925033009 45 49 5.0 10.0 0.00 0.05 0.05 83 1022.6
20180925032508 45 65 2.0 4.0 0.00 0.05 0.05 82 1022.5
20180925032009 45 90 2.0 2.0 0.00 0.05 0.05 81 1022.5
20180925031509 44 345 0.0 0.0 0.00 0.05 0.05 80 1022.1
20180925031009 45 271 0.0 1.0 0.00 0.05 0.05 81 1021.9
20180925030509 44 180 0.0 0.0 0.00 0.05 0.05 76 1021.8
20180925030011 44 180 0.0 0.0 0.00 0.05 0.05 76 1021.8
20180925025508 45 180 0.0 0.0 0.00 0.05 0.05 75 1022.1
20180925025009 46 180 0.0 1.0 0.00 0.05 0.05 75 1022.0
20180925024508 45 315 0.0 1.0 0.00 0.05 0.05 72 1021.7
20180925024009 45 314 2.0 4.0 0.00 0.05 0.05 74 1021.4
20180925023509 45 314 2.0 4.0 0.00 0.05 0.05 74 1021.4
20180925023010 45 314 2.0 4.0 0.00 0.05 0.05 74 1021.4
20180925022508 46 314 2.0 4.0 0.00 0.05 0.05 75 1021.4
20180925022010 45 314 2.0 4.0 0.00 0.05 0.05 74 1021.4
20180925021509 45 307 3.0 4.0 0.00 0.05 0.05 73 1021.4
20180925021009 46 310 3.0 4.0 0.00 0.05 0.05 72 1021.4
20180925020509 46 310 3.0 4.0 0.00 0.05 0.05 72 1021.4
20180925020011 46 302 3.0 4.0 0.00 0.05 0.05 71 1021.4
20180925015509 46 302 3.0 4.0 0.00 0.05 0.05 71 1021.4
20180925015009 46 302 3.0 4.0 0.00 0.05 0.05 71 1021.4
20180925014508 47 295 4.0 7.0 0.00 0.05 0.05 73 1021.1
20180925014009 46 298 5.0 7.0 0.00 0.05 0.05 73 1021.1
20180925013509 47 302 4.0 6.0 0.00 0.05 0.05 71 1021.1
20180925013010 47 264 5.0 7.0 0.00 0.05 0.05 67 1021.0
20180925012508 47 264 4.0 7.0 0.00 0.05 0.05 67 1021.1
20180925012010 49 271 4.0 7.0 0.00 0.05 0.05 68 1021.0
20180925011509 49 267 3.0 6.0 0.00 0.05 0.05 68 1021.0
20180925011010 49 268 3.0 7.0 0.00 0.05 0.05 68 1021.0
20180925010509 49 261 3.0 7.0 0.00 0.05 0.05 67 1021.1
20180925010011 49 247 3.0 6.0 0.00 0.05 0.05 68 1021.0
20180925005508 49 270 2.0 3.0 0.00 0.05 0.05 67 1021.0
20180925005010 49 258 2.0 3.0 0.00 0.05 0.05 67 1021.0
20180925004508 49 270 3.0 3.0 0.00 0.05 0.05 67 1021.0
20180925004009 50 207 2.0 4.0 0.00 0.05 0.05 67 1021.0
20180925003508 50 234 2.0 5.0 0.00 0.05 0.05 67 1021.0
20180925003009 50 228 2.0 5.0 0.00 0.05 0.05 67 1021.0
20180925002509 50 237 1.0 3.0 0.00 0.05 0.05 67 1021.1
20180925002009 51 237 2.0 5.0 0.00 0.05 0.05 68 1021.0
20180925001509 52 228 2.0 5.0 0.00 0.05 0.05 63 1021.0
20180925001009 51 230 2.0 5.0 0.00 0.05 0.05 62 1021.0
20180925000509 52 228 2.0 5.0 0.00 0.05 0.05 63 1021.0
20180925000011 51 230 3.0 6.0 0.00 0.05 0.05 62 1021.0
20180924235508 53 246 2.0 4.0 0.00 0.05 0.05 63 1020.9
20180924235009 52 228 3.0 5.0 0.00 0.05 0.05 63 1020.8
20180924234509 52 0 2.0 3.0 0.00 0.05 0.05 62 1021.0
20180924234009 52 278 3.0 6.0 0.00 0.05 0.05 63 1020.8
20180924233509 52 283 4.0 6.0 0.00 0.05 0.05 64 1020.7
20180924233009 52 308 4.0 6.0 0.00 0.05 0.05 66 1020.7
20180924232508 51 272 3.0 6.0 0.00 0.05 0.05 69 1020.7
20180924232009 50 302 4.0 8.0 0.00 0.05 0.05 71 1020.7
20180924231508 49 298 5.0 7.0 0.00 0.05 0.05 73 1020.7
20180924231010 48 296 1.0 3.0 0.00 0.05 0.05 75 1020.7
20180924230509 48 240 3.0 7.0 0.00 0.05 0.05 77 1020.7
20180924230011 48 310 3.0 4.0 0.00 0.05 0.05 76 1020.7
20180924225508 49 309 3.0 4.0 0.00 0.05 0.05 76 1020.7
20180924225010 49 313 2.0 4.0 0.00 0.05 0.05 76 1020.7
20180924224508 49 328 3.0 7.0 0.00 0.05 0.05 77 1020.7
20180924224010 50 273 2.0 5.0 0.00 0.05 0.05 78 1020.7
20180924223508 50 291 1.0 4.0 0.00 0.05 0.05 79 1020.7
20180924223010 50 229 1.0 3.0 0.00 0.05 0.05 80 1020.7
20180924222509 50 209 2.0 5.0 0.00 0.05 0.05 80 1020.7
20180924222009 49 190 2.0 4.0 0.00 0.05 0.05 80 1020.7
20180924221508 49 235 3.0 6.0 0.00 0.05 0.05 81 1020.7
20180924221009 49 230 1.0 4.0 0.00 0.05 0.05 85 1020.7
20180924220508 49 183 0.0 0.0 0.00 0.05 0.05 87 1020.7
20180924220011 48 180 1.0 2.0 0.00 0.05 0.05 85 1020.7
20180924215513 48 164 2.0 4.0 0.00 0.05 0.05 85 1020.7
20180924215009 47 223 1.0 3.0 0.02 0.06 0.05 85 1020.7
20180924214509 47 159 1.0 2.0 0.02 0.06 0.05 85 1020.6
20180924214010 47 250 1.0 3.0 0.02 0.06 0.05 83 1020.6
20180924213509 46 296 2.0 4.0 0.02 0.06 0.05 82 1020.3
20180924213009 45 296 2.0 3.0 0.02 0.06 0.05 81 1020.3
20180924212508 46 284 2.0 3.0 0.02 0.06 0.05 82 1020.4
20180924212010 45 273 2.0 3.0 0.02 0.06 0.05 82 1020.4
20180924211509 45 270 2.0 3.0 0.02 0.06 0.05 84 1020.5
20180924211010 45 301 2.0 4.0 0.02 0.06 0.05 85 1020.5
20180924210509 45 290 2.0 4.0 0.03 0.06 0.05 84 1020.7
20180924210011 46 287 2.0 3.0 0.03 0.06 0.05 84 1020.6
20180924205509 46 325 2.0 3.0 0.04 0.06 0.04 83 1020.7
20180924205010 46 8 4.0 5.0 0.03 0.04 0.03 84 1020.7
20180924204509 46 17 5.0 6.0 0.03 0.06 0.03 84 1020.6
20180924204009 46 29 7.0 9.0 0.03 0.08 0.03 83 1020.3
20180924203509 46 12 4.0 6.0 0.03 0.13 0.03 83 1020.3
20180924203011 46 21 6.0 9.0 0.03 0.16 0.03 83 1020.3
20180924202508 46 19 8.0 10.0 0.03 0.16 0.03 83 1020.3
20180924202011 45 23 7.0 10.0 0.03 0.16 0.03 82 1020.3
20180924201511 45 7 7.0 10.0 0.03 0.16 0.03 82 1020.3
20180924201011 45 5 7.0 10.0 0.03 0.16 0.02 81 1020.3
20180924200509 45 14 6.0 8.0 0.02 0.15 0.02 80 1020.3
20180924200010 46 1 6.0 9.0 0.02 0.15 0.01 78 1020.3
20180924195509 46 16 9.0 12.0 0.01 0.14 0.01 76 1020.3
20180924195009 47 45 5.0 6.0 0.00 0.13 0.00 72 1019.9
20180924194508 48 45 6.0 8.0 0.00 0.13 0.00 73 1019.9
20180924194010 49 50 5.0 10.0 0.00 0.13 0.00 71 1019.8
20180924193508 49 78 5.0 7.0 0.00 0.13 0.00 67 1019.5
20180924193009 48 112 3.0 4.0 0.00 0.13 0.00 66 1019.5
20180924192508 48 112 4.0 5.0 0.00 0.13 0.00 66 1019.5
20180924192009 48 112 3.0 4.0 0.00 0.13 0.00 66 1019.5
20180924191508 48 112 2.0 3.0 0.00 0.13 0.00 66 1019.5
20180924191009 49 78 4.0 5.0 0.00 0.13 0.00 67 1019.5
20180924190509 48 84 5.0 7.0 0.00 0.13 0.00 66 1019.5
20180924190010 48 112 5.0 6.0 0.00 0.13 0.00 66 1019.5
20180924185508 49 101 5.0 8.0 0.00 0.13 0.00 67 1019.5
20180924185009 48 104 4.0 5.0 0.00 0.13 0.00 66 1019.3
20180924184508 48 67 3.0 4.0 0.00 0.13 0.00 64 1019.1
20180924184008 48 67 3.0 8.0 0.00 0.13 0.00 64 1019.2
20180924183508 49 52 3.0 6.0 0.00 0.13 0.00 65 1019.2
20180924183009 48 67 3.0 4.0 0.00 0.13 0.00 64 1019.1
20180924182509 48 67 2.0 3.0 0.00 0.13 0.00 64 1019.2
20180924182010 48 66 3.0 8.0 0.00 0.13 0.00 64 1019.1
20180924181508 49 37 4.0 6.0 0.00 0.13 0.00 65 1019.0
20180924181009 48 43 5.0 8.0 0.00 0.13 0.00 64 1018.9
20180924180509 48 79 6.0 8.0 0.00 0.13 0.00 63 1018.8
20180924180011 49 91 5.0 9.0 0.00 0.13 0.00 64 1019.2
20180924175508 50 99 5.0 9.0 0.00 0.13 0.00 62 1018.9
20180924175009 50 96 4.0 7.0 0.00 0.13 0.00 61 1019.0
20180924174509 51 88 5.0 8.0 0.00 0.13 0.00 60 1018.8
20180924164009 49 247 0.0 0.0 0.00 0.13 0.00 53 1016.9
20180924163508 49 247 4.0 5.0 0.00 0.13 0.00 53 1016.9
20180924163010 49 247 4.0 5.0 0.00 0.13 0.00 53 1016.9
20180924162508 49 247 4.0 5.0 0.00 0.13 0.00 53 1016.9
20180924162009 50 258 4.0 6.0 0.00 0.13 0.00 54 1016.9
20180924161508 50 259 4.0 5.0 0.00 0.13 0.00 54 1016.9
20180924161009 50 258 4.0 7.0 0.00 0.13 0.00 54 1016.9
20180924160508 49 247 4.0 6.0 0.00 0.13 0.00 53 1016.9
20180924160012 50 258 4.0 6.0 0.00 0.13 0.00 54 1016.9
20180924155508 50 259 4.0 8.0 0.00 0.13 0.00 54 1016.9
20180924155010 50 259 4.0 8.0 0.00 0.13 0.00 54 1016.9
20180924154509 49 259 4.0 7.0 0.00 0.13 0.00 53 1016.9
20180924154009 50 259 4.0 6.0 0.00 0.13 0.00 54 1016.9
20180924153509 49 258 4.0 7.0 0.00 0.13 0.00 53 1016.9
20180924153009 50 258 4.0 7.0 0.00 0.13 0.00 54 1016.9
20180924152509 50 258 4.0 8.0 0.00 0.13 0.00 54 1016.9
20180924152010 49 258 5.0 9.0 0.00 0.13 0.00 53 1016.9